createdAt,value
2019-05-26T00:00:09.919Z,15.83
2019-05-26T00:02:39.248Z,14.05
2019-05-26T00:05:08.832Z,17.90
2019-05-26T00:07:38.175Z,18.85
2019-05-26T00:10:08.393Z,17.07
2019-05-26T00:12:38.812Z,13.62
2019-05-26T00:15:08.322Z,15.67
2019-05-26T00:17:37.633Z,15.15
2019-05-26T00:20:08.106Z,12.58
2019-05-26T00:22:37.312Z,13.90
2019-05-26T00:25:08.252Z,14.23
2019-05-26T00:27:39.168Z,15.90
2019-05-26T00:30:08.614Z,12.80
2019-05-26T00:32:38.151Z,16.37
2019-05-26T00:35:08.497Z,21.40
2019-05-26T00:37:48.669Z,14.98
2019-05-26T00:40:09.983Z,13.65
2019-05-26T00:42:39.212Z,14.80
2019-05-26T00:45:09.381Z,14.87
2019-05-26T00:47:38.677Z,16.87
2019-05-26T00:50:09.032Z,15.40
2019-05-26T00:52:38.730Z,13.62
2019-05-26T00:55:08.699Z,16.07
2019-05-26T00:57:38.118Z,16.82
2019-05-26T01:00:08.297Z,15.10
2019-05-26T01:02:37.552Z,14.23
2019-05-26T01:05:08.259Z,16.50
2019-05-26T01:07:38.169Z,19.12
2019-05-26T01:10:08.752Z,16.87
2019-05-26T01:12:38.099Z,14.80
2019-05-26T01:15:10.403Z,16.27
2019-05-26T01:17:39.665Z,22.80
2019-05-26T01:20:09.759Z,15.85
2019-05-26T01:22:44.780Z,16.60
2019-05-26T01:25:14.069Z,15.85
2019-05-26T01:27:43.337Z,15.10
2019-05-26T01:30:12.705Z,18.20
2019-05-26T01:32:42.013Z,17.50
2019-05-26T01:35:11.497Z,17.50
2019-05-26T01:37:41.018Z,17.45
2019-05-26T01:40:10.499Z,17.30
2019-05-26T01:42:39.819Z,17.60
2019-05-26T01:45:09.287Z,16.20
2019-05-26T01:47:40.059Z,18.37
2019-05-26T01:50:09.491Z,16.15
2019-05-26T01:52:38.663Z,16.67
2019-05-26T01:55:07.982Z,18.35
2019-05-26T01:57:37.463Z,16.30
2019-05-26T02:00:09.130Z,15.72
2019-05-26T02:02:38.524Z,17.77
2019-05-26T02:05:07.888Z,17.85
2019-05-26T02:07:37.119Z,16.50
2019-05-26T02:10:08.317Z,16.80
2019-05-26T02:15:07.763Z,16.35
2019-05-26T02:17:37.057Z,15.95
2019-05-26T02:20:07.810Z,14.55
2019-05-26T02:22:37.026Z,15.98
2019-05-26T02:25:08.873Z,24.90
2019-05-26T02:27:39.023Z,14.68
2019-05-26T02:30:11.438Z,14.70
2019-05-26T02:32:40.670Z,13.93
2019-05-26T02:35:10.419Z,17.23
2019-05-26T02:37:39.634Z,16.93
2019-05-26T02:40:10.922Z,16.15
2019-05-26T02:42:40.175Z,17.25
2019-05-26T02:45:11.854Z,17.67
2019-05-26T02:47:41.071Z,17.17
2019-05-26T02:50:10.984Z,14.80
2019-05-26T02:52:40.314Z,12.98
2019-05-26T02:55:10.255Z,16.77
2019-05-26T02:57:39.502Z,13.90
2019-05-26T03:00:10.363Z,14.15
2019-05-26T03:02:40.080Z,14.85
2019-05-26T03:05:13.275Z,15.60
2019-05-26T03:07:45.955Z,14.43
2019-05-26T03:10:15.819Z,16.87
2019-05-26T03:12:47.072Z,17.35
2019-05-26T03:17:46.342Z,14.15
2019-05-26T03:20:16.043Z,16.70
2019-05-26T03:22:48.709Z,15.40
2019-05-26T03:25:18.971Z,16.52
2019-05-26T03:27:48.243Z,17.30
2019-05-26T03:30:17.422Z,13.88
2019-05-26T03:32:46.562Z,17.70
2019-05-26T03:35:15.917Z,16.00
2019-05-26T03:37:44.976Z,16.12
2019-05-26T03:40:14.278Z,16.93
2019-05-26T03:42:43.420Z,15.38
2019-05-26T03:45:15.712Z,15.23
2019-05-26T03:47:44.909Z,12.68
2019-05-26T03:50:14.449Z,16.35
2019-05-26T03:52:44.589Z,14.15
2019-05-26T03:55:14.479Z,12.10
2019-05-26T03:57:43.730Z,12.63
2019-05-26T04:00:13.392Z,15.88
2019-05-26T04:02:42.601Z,18.92
2019-05-26T04:05:31.141Z,13.83
2019-05-26T04:08:04.366Z,12.30
2019-05-26T04:10:31.228Z,12.95
2019-05-26T04:13:00.410Z,13.50
2019-05-26T04:15:29.672Z,13.85
2019-05-26T04:17:58.786Z,11.22
2019-05-26T04:20:27.929Z,16.27
2019-05-26T04:22:57.127Z,14.78
2019-05-26T04:25:26.689Z,12.63
2019-05-26T04:27:55.898Z,12.15
2019-05-26T04:30:25.091Z,13.28
2019-05-26T04:32:54.247Z,15.80
2019-05-26T04:35:23.458Z,14.90
2019-05-26T04:37:52.682Z,13.10
2019-05-26T04:40:27.363Z,12.20
2019-05-26T04:42:52.540Z,13.78
2019-05-26T04:45:21.783Z,12.47
2019-05-26T04:47:51.033Z,15.65
2019-05-26T04:50:20.573Z,15.95
2019-05-26T04:53:05.551Z,15.48
2019-05-26T04:55:20.713Z,13.62
2019-05-26T04:57:49.821Z,13.43
2019-05-26T05:00:19.324Z,16.05
2019-05-26T05:02:48.433Z,19.02
2019-05-26T05:05:17.739Z,17.60
2019-05-26T05:07:47.505Z,17.57
2019-05-26T05:10:16.962Z,19.48
2019-05-26T05:12:46.116Z,18.62
2019-05-26T05:15:15.699Z,15.58
2019-05-26T05:17:44.876Z,24.52
2019-05-26T05:20:14.317Z,15.80
2019-05-26T05:22:45.237Z,19.45
2019-05-26T05:25:15.896Z,19.32
2019-05-26T05:27:45.503Z,20.05
2019-05-26T05:30:15.485Z,15.55
2019-05-26T05:32:44.711Z,14.30
2019-05-26T05:35:14.209Z,17.85
2019-05-26T05:37:43.542Z,15.13
2019-05-26T05:40:13.235Z,15.23
2019-05-26T05:42:42.446Z,13.98
2019-05-26T05:45:13.428Z,16.85
2019-05-26T05:47:42.586Z,17.82
2019-05-26T05:50:12.306Z,13.58
2019-05-26T05:52:41.561Z,17.90
2019-05-26T05:55:11.272Z,17.23
2019-05-26T05:57:40.467Z,16.73
2019-05-26T06:00:11.373Z,18.30
2019-05-26T06:02:40.558Z,20.72
2019-05-26T06:05:10.241Z,15.85
2019-05-26T06:07:39.431Z,17.85
2019-05-26T06:10:10.581Z,14.87
2019-05-26T06:15:13.151Z,15.30
2019-05-26T06:17:43.668Z,12.90
2019-05-26T06:20:13.618Z,10.43
2019-05-26T06:22:45.337Z,11.08
2019-05-26T06:25:14.045Z,7.47
2019-05-26T06:27:43.265Z,10.40
2019-05-26T06:30:32.009Z,12.75
2019-05-26T06:33:01.853Z,9.40
2019-05-26T06:35:32.845Z,9.85
2019-05-26T06:38:03.507Z,7.15
2019-05-26T06:40:32.654Z,7.92
2019-05-26T06:43:01.879Z,9.98
2019-05-26T06:45:31.077Z,6.78
2019-05-26T06:48:00.386Z,9.60
2019-05-26T06:50:29.629Z,7.97
2019-05-26T06:52:58.772Z,9.98
2019-05-26T06:55:29.612Z,6.40
2019-05-26T06:57:58.875Z,10.98
2019-05-26T07:00:28.123Z,7.62
2019-05-26T07:02:57.278Z,5.97
2019-05-26T07:05:26.480Z,8.70
2019-05-26T07:07:55.704Z,7.35
2019-05-26T07:10:24.800Z,12.90
2019-05-26T07:12:54.031Z,6.20
2019-05-26T07:15:23.300Z,10.30
2019-05-26T07:17:52.648Z,8.33
2019-05-26T07:20:21.847Z,7.40
2019-05-26T07:22:51.036Z,7.25
2019-05-26T07:25:20.322Z,8.35
2019-05-26T07:27:50.709Z,6.20
2019-05-26T07:30:23.430Z,6.03
2019-05-26T07:32:50.877Z,6.17
2019-05-26T07:35:20.173Z,9.48
2019-05-26T07:37:49.356Z,6.05
2019-05-26T07:40:18.821Z,6.92
2019-05-26T07:42:47.916Z,4.95
2019-05-26T07:45:18.461Z,8.45
2019-05-26T07:47:47.675Z,8.28
2019-05-26T07:50:16.938Z,6.92
2019-05-26T07:52:46.041Z,6.03
2019-05-26T07:55:15.723Z,5.50
2019-05-26T07:57:44.821Z,9.18
2019-05-26T08:00:14.504Z,5.70
2019-05-26T08:02:43.682Z,5.17
2019-05-26T08:05:13.584Z,5.28
2019-05-26T08:07:42.897Z,6.28
2019-05-26T08:10:12.275Z,7.35
2019-05-26T08:12:41.352Z,8.75
2019-05-26T08:15:10.960Z,7.50
2019-05-26T08:17:40.124Z,4.55
2019-05-26T08:20:11.668Z,8.50
2019-05-26T08:22:40.912Z,6.15
2019-05-26T08:25:10.619Z,7.45
2019-05-26T08:27:39.868Z,7.20
2019-05-26T08:30:09.747Z,6.75
2019-05-26T08:32:38.964Z,9.15
2019-05-26T08:35:08.855Z,6.92
2019-05-26T08:37:38.142Z,9.70
2019-05-26T08:40:19.615Z,4.53
2019-05-26T08:42:51.072Z,7.08
2019-05-26T08:45:22.622Z,6.22
2019-05-26T08:47:52.581Z,5.03
2019-05-26T08:50:23.007Z,9.78
2019-05-26T08:52:52.243Z,5.40
2019-05-26T08:55:21.927Z,6.60
2019-05-26T08:57:51.154Z,5.22
2019-05-26T09:00:21.041Z,5.97
2019-05-26T09:02:50.269Z,6.97
2019-05-26T09:05:20.738Z,7.33
2019-05-26T09:07:49.981Z,5.47
2019-05-26T09:10:19.563Z,9.40
2019-05-26T09:13:00.111Z,7.47
2019-05-26T09:15:19.881Z,5.30
2019-05-26T09:17:49.098Z,9.33
2019-05-26T09:20:18.865Z,5.00
2019-05-26T09:22:47.997Z,5.87
2019-05-26T09:25:17.568Z,8.53
2019-05-26T09:27:46.740Z,6.37
2019-05-26T09:30:16.096Z,9.88
2019-05-26T09:32:45.222Z,6.97
2019-05-26T09:35:14.567Z,6.60
2019-05-26T09:37:43.850Z,5.42
2019-05-26T09:40:14.571Z,5.22
2019-05-26T09:42:43.707Z,3.75
2019-05-26T09:45:13.193Z,8.23
2019-05-26T09:47:42.409Z,6.85
2019-05-26T09:50:11.954Z,6.72
2019-05-26T09:52:41.088Z,7.25
2019-05-26T09:55:11.030Z,5.40
2019-05-26T09:57:40.304Z,5.87
2019-05-26T10:00:10.722Z,4.87
2019-05-26T10:02:39.833Z,5.70
2019-05-26T10:05:09.363Z,5.03
2019-05-26T10:07:38.564Z,5.85
2019-05-26T10:10:08.590Z,6.00
2019-05-26T10:12:37.937Z,4.40
2019-05-26T10:15:09.408Z,4.70
2019-05-26T10:17:38.688Z,3.22
2019-05-26T10:20:09.640Z,6.78
2019-05-26T10:22:38.933Z,6.92
2019-05-26T10:25:08.769Z,5.75
2019-05-26T10:27:38.064Z,4.65
2019-05-26T10:30:12.096Z,5.70
2019-05-26T10:32:41.315Z,4.83
2019-05-26T10:35:10.862Z,4.47
2019-05-26T10:37:40.069Z,5.85
2019-05-26T10:40:09.618Z,6.80
2019-05-26T10:42:38.848Z,5.40
2019-05-26T10:45:10.798Z,6.20
2019-05-26T10:47:40.056Z,4.95
2019-05-26T10:50:11.077Z,8.33
2019-05-26T10:55:09.488Z,5.30
2019-05-26T10:57:38.768Z,6.20
2019-05-26T11:00:09.496Z,7.20
2019-05-26T11:02:38.843Z,4.05
2019-05-26T11:05:08.299Z,5.42
2019-05-26T11:07:37.488Z,5.40
2019-05-26T11:10:07.650Z,3.55
2019-05-26T11:12:36.822Z,5.30
2019-05-26T11:15:08.384Z,6.75
2019-05-26T11:17:37.604Z,5.08
2019-05-26T11:20:11.282Z,5.10
2019-05-26T11:22:40.444Z,3.90
2019-05-26T11:25:11.456Z,4.70
2019-05-26T11:30:12.499Z,6.15
2019-05-26T11:32:41.768Z,6.62
2019-05-26T11:35:11.687Z,5.03
2019-05-26T11:37:40.919Z,3.98
2019-05-26T11:40:11.034Z,5.28
2019-05-26T11:42:40.271Z,4.03
2019-05-26T11:45:10.265Z,5.80
2019-05-26T11:47:39.434Z,6.10
2019-05-26T11:50:09.325Z,7.17
2019-05-26T11:52:38.449Z,4.83
2019-05-26T11:55:08.242Z,5.17
2019-05-26T11:57:37.759Z,4.40
2019-05-26T12:00:13.972Z,4.95
2019-05-26T12:02:44.351Z,7.22
2019-05-26T12:05:17.279Z,4.85
2019-05-26T12:07:44.727Z,4.35
2019-05-26T12:10:14.660Z,6.20
2019-05-26T12:12:44.604Z,4.27
2019-05-26T12:15:14.818Z,5.90
2019-05-26T12:17:44.122Z,7.37
2019-05-26T12:20:15.158Z,5.28
2019-05-26T12:25:13.022Z,3.72
2019-05-26T12:27:42.218Z,2.95
2019-05-26T12:30:12.163Z,4.85
2019-05-26T12:32:41.434Z,7.85
2019-05-26T12:35:11.181Z,5.92
2019-05-26T12:37:40.342Z,5.62
2019-05-26T12:40:10.141Z,5.53
2019-05-26T12:42:40.191Z,5.53
2019-05-26T12:45:10.484Z,6.33
2019-05-26T12:47:39.747Z,5.58
2019-05-26T12:50:09.785Z,5.08
2019-05-26T12:52:39.144Z,5.62
2019-05-26T12:55:09.886Z,4.22
2019-05-26T12:57:39.350Z,7.90
2019-05-26T13:00:10.478Z,3.65
2019-05-26T13:02:39.663Z,3.77
2019-05-26T13:05:09.443Z,4.92
2019-05-26T13:07:38.736Z,4.80
2019-05-26T13:10:08.286Z,9.10
2019-05-26T13:12:37.586Z,5.30
2019-05-26T13:15:09.330Z,5.65
2019-05-26T13:17:38.621Z,6.25
2019-05-26T13:20:08.743Z,4.42
2019-05-26T13:22:38.487Z,3.83
2019-05-26T13:25:08.953Z,3.83
2019-05-26T13:27:38.387Z,4.43
2019-05-26T13:30:09.886Z,6.55
2019-05-26T13:32:39.157Z,4.70
2019-05-26T13:35:09.118Z,7.15
2019-05-26T13:37:38.388Z,4.37
2019-05-26T13:40:08.778Z,4.42
2019-05-26T13:42:38.076Z,4.25
2019-05-26T13:45:21.031Z,3.50
2019-05-26T13:47:39.270Z,3.95
2019-05-26T13:50:08.941Z,4.72
2019-05-26T13:52:38.214Z,5.20
2019-05-26T13:55:11.276Z,8.20
2019-05-26T13:57:40.489Z,5.03
2019-05-26T14:00:12.789Z,4.70
2019-05-26T14:02:42.229Z,6.00
2019-05-26T14:05:11.777Z,5.87
2019-05-26T14:07:41.064Z,11.30
2019-05-26T14:10:10.549Z,5.90
2019-05-26T14:12:39.845Z,9.43
2019-05-26T14:15:11.123Z,9.98
2019-05-26T14:17:40.388Z,5.10
2019-05-26T14:20:10.669Z,4.85
2019-05-26T14:22:39.874Z,7.08
2019-05-26T14:25:09.685Z,4.22
2019-05-26T14:27:39.044Z,8.93
2019-05-26T14:30:08.494Z,9.45
2019-05-26T14:32:38.372Z,4.05
2019-05-26T14:35:08.009Z,9.03
2019-05-26T14:37:37.250Z,6.17
2019-05-26T14:40:08.075Z,6.05
2019-05-26T14:42:37.413Z,4.45
2019-05-26T14:45:07.011Z,9.03
2019-05-26T14:47:36.234Z,4.67
2019-05-26T14:50:12.045Z,9.45
2019-05-26T14:52:41.301Z,4.60
2019-05-26T14:55:11.243Z,8.53
2019-05-26T14:57:40.478Z,9.43
2019-05-26T15:00:10.692Z,5.50
2019-05-26T15:02:39.974Z,6.77
2019-05-26T15:05:09.455Z,5.78
2019-05-26T15:07:38.773Z,4.12
2019-05-26T15:10:09.837Z,6.90
2019-05-26T15:15:08.106Z,6.72
2019-05-26T15:17:37.365Z,4.28
2019-05-26T15:20:08.553Z,11.78
2019-05-26T15:22:38.020Z,5.85
2019-05-26T15:25:08.279Z,7.85
2019-05-26T15:27:37.396Z,8.00
2019-05-26T15:30:09.036Z,6.90
2019-05-26T15:32:38.296Z,6.37
2019-05-26T15:35:08.684Z,8.25
2019-05-26T15:37:37.944Z,7.75
2019-05-26T15:40:08.638Z,13.03
2019-05-26T15:42:37.886Z,5.80
2019-05-26T15:45:07.788Z,9.45
2019-05-26T15:47:36.956Z,7.17
2019-05-26T15:50:10.371Z,9.85
2019-05-26T15:52:40.226Z,8.18
2019-05-26T15:55:10.698Z,5.58
2019-05-26T15:57:39.933Z,6.40
2019-05-26T16:00:09.951Z,7.92
2019-05-26T16:02:39.107Z,5.65
2019-05-26T16:05:09.091Z,6.40
2019-05-26T16:07:38.283Z,6.90
2019-05-26T16:10:08.683Z,10.13
2019-05-26T16:12:37.938Z,7.72
2019-05-26T16:15:08.948Z,7.72
2019-05-26T16:20:08.918Z,7.15
2019-05-26T16:22:38.208Z,9.07
2019-05-26T16:25:08.320Z,7.42
2019-05-26T16:27:37.542Z,5.93
2019-05-26T16:30:07.969Z,9.08
2019-05-26T16:32:38.206Z,9.38
2019-05-26T16:35:08.617Z,6.28
2019-05-26T16:37:37.777Z,9.45
2019-05-26T16:40:08.042Z,8.93
2019-05-26T16:42:37.330Z,8.30
2019-05-26T16:45:08.241Z,8.08
2019-05-26T16:47:37.418Z,10.98
2019-05-26T16:50:07.971Z,7.47
2019-05-26T16:52:37.346Z,8.90
2019-05-26T16:55:07.317Z,12.63
2019-05-26T16:57:36.611Z,6.72
2019-05-26T17:00:08.689Z,6.70
2019-05-26T17:02:37.962Z,8.05
2019-05-26T17:05:09.883Z,6.45
2019-05-26T17:07:40.680Z,7.45
2019-05-26T17:10:10.403Z,6.90
2019-05-26T17:12:39.644Z,11.33
2019-05-26T17:15:08.974Z,8.03
2019-05-26T17:17:38.244Z,9.08
2019-05-26T17:20:09.396Z,14.00
2019-05-26T17:22:38.637Z,12.10
2019-05-26T17:25:08.494Z,10.05
2019-05-26T17:27:37.726Z,10.08
2019-05-26T17:30:07.974Z,11.80
2019-05-26T17:32:38.737Z,16.53
2019-05-26T17:35:08.069Z,19.48
2019-05-26T17:37:37.279Z,12.93
2019-05-26T17:40:08.237Z,11.97
2019-05-26T17:42:37.564Z,13.85
2019-05-26T17:45:07.799Z,13.28
2019-05-26T17:47:37.102Z,12.00
2019-05-26T17:50:07.754Z,12.70
2019-05-26T17:52:37.184Z,13.85
2019-05-26T17:55:07.755Z,13.22
2019-05-26T17:57:37.342Z,24.95
2019-05-26T18:00:11.435Z,10.40
2019-05-26T18:02:40.661Z,10.90
2019-05-26T18:05:11.315Z,17.10
2019-05-26T18:07:40.477Z,11.30
2019-05-26T18:10:10.231Z,17.40
2019-05-26T18:12:39.581Z,12.90
2019-05-26T18:15:10.695Z,17.00
2019-05-26T18:20:10.099Z,15.08
2019-05-26T18:22:39.310Z,13.22
2019-05-26T18:25:09.575Z,14.90
2019-05-26T18:27:38.819Z,16.63
2019-05-26T18:30:08.517Z,19.05
2019-05-26T18:32:37.804Z,16.48
2019-05-26T18:35:09.722Z,16.62
2019-05-26T18:37:39.009Z,12.20
2019-05-26T18:40:09.251Z,14.18
2019-05-26T18:42:38.516Z,16.13
2019-05-26T18:45:08.287Z,14.87
2019-05-26T18:47:38.943Z,16.17
2019-05-26T18:50:08.427Z,14.13
2019-05-26T18:52:37.705Z,15.70
2019-05-26T18:55:07.374Z,23.70
2019-05-26T18:57:36.597Z,31.85
2019-05-26T19:00:07.961Z,26.60
2019-05-26T19:02:37.158Z,28.40
2019-05-26T19:05:07.148Z,23.95
2019-05-26T19:07:36.269Z,26.57
2019-05-26T19:10:09.203Z,21.82
2019-05-26T19:12:38.470Z,22.77
2019-05-26T19:15:09.159Z,19.77
2019-05-26T19:17:38.393Z,19.98
2019-05-26T19:20:16.082Z,18.55
2019-05-26T19:22:38.973Z,15.72
2019-05-26T19:25:08.356Z,15.58
2019-05-26T19:27:37.455Z,16.93
2019-05-26T19:30:09.848Z,13.32
2019-05-26T19:32:39.131Z,13.18
2019-05-26T19:35:08.868Z,15.78
2019-05-26T19:37:38.071Z,13.93
2019-05-26T19:40:08.642Z,17.60
2019-05-26T19:42:37.877Z,16.62
2019-05-26T19:45:07.488Z,19.75
2019-05-26T19:47:36.698Z,14.95
2019-05-26T19:50:09.413Z,18.87
2019-05-26T19:52:38.715Z,13.83
2019-05-26T19:55:07.979Z,13.90
2019-05-26T19:57:37.277Z,13.50
2019-05-26T20:00:13.981Z,14.28
2019-05-26T20:02:43.313Z,15.72
2019-05-26T20:05:12.984Z,17.73
2019-05-26T20:07:42.319Z,12.35
2019-05-26T20:10:12.261Z,13.72
2019-05-26T20:12:41.461Z,14.18
2019-05-26T20:15:13.710Z,13.72
2019-05-26T20:17:42.920Z,14.00
2019-05-26T20:20:13.079Z,15.63
2019-05-26T20:22:42.412Z,14.15
2019-05-26T20:25:11.867Z,13.68
2019-05-26T20:27:41.032Z,12.15
2019-05-26T20:30:10.734Z,12.07
2019-05-26T20:32:40.017Z,15.10
2019-05-26T20:35:09.477Z,11.38
2019-05-26T20:37:38.704Z,11.33
2019-05-26T20:40:09.759Z,13.68
2019-05-26T20:42:39.042Z,13.72
2019-05-26T20:45:08.793Z,12.60
2019-05-26T20:47:38.147Z,13.18
2019-05-26T20:50:08.931Z,11.90
2019-05-26T20:52:38.154Z,11.97
2019-05-26T20:55:07.898Z,12.80
2019-05-26T20:57:37.753Z,11.88
2019-05-26T21:00:14.815Z,11.68
2019-05-26T21:02:44.353Z,13.35
2019-05-26T21:05:14.269Z,15.13
2019-05-26T21:07:43.472Z,10.23
2019-05-26T21:10:12.860Z,12.63
2019-05-26T21:12:42.107Z,11.73
2019-05-26T21:15:11.948Z,10.65
2019-05-26T21:17:41.112Z,10.50
2019-05-26T21:20:10.885Z,12.18
2019-05-26T21:22:40.140Z,12.47
2019-05-26T21:25:09.837Z,11.45
2019-05-26T21:27:38.996Z,10.55
2019-05-26T21:30:09.338Z,16.35
2019-05-26T21:32:38.603Z,11.25
2019-05-26T21:35:07.950Z,9.75
2019-05-26T21:37:37.169Z,11.45
2019-05-26T21:40:07.627Z,9.68
2019-05-26T21:42:36.872Z,10.15
2019-05-26T21:45:08.013Z,11.30
2019-05-26T21:50:09.307Z,10.68
2019-05-26T21:52:38.572Z,12.35
2019-05-26T21:55:08.390Z,9.80
2019-05-26T21:57:37.677Z,10.70
2019-05-26T22:00:10.985Z,10.65
2019-05-26T22:02:40.176Z,11.35
2019-05-26T22:05:09.574Z,8.55
2019-05-26T22:07:38.736Z,10.20
2019-05-26T22:10:08.352Z,8.53
2019-05-26T22:12:37.525Z,11.00
2019-05-26T22:15:08.621Z,10.00
2019-05-26T22:17:37.888Z,10.48
2019-05-26T22:20:07.953Z,12.10
2019-05-26T22:22:37.147Z,10.68
2019-05-26T22:25:09.439Z,10.23
2019-05-26T22:27:38.803Z,12.15
2019-05-26T22:30:09.090Z,12.63
2019-05-26T22:32:38.297Z,11.00
2019-05-26T22:35:08.274Z,12.37
2019-05-26T22:37:37.546Z,9.10
2019-05-26T22:40:07.525Z,11.18
2019-05-26T22:42:36.777Z,9.90
2019-05-26T22:45:07.844Z,9.78
2019-05-26T22:47:37.006Z,10.32
2019-05-26T22:50:08.297Z,10.30
2019-05-26T22:52:37.484Z,9.10
2019-05-26T22:55:07.947Z,9.65
2019-05-26T22:57:37.254Z,11.55
2019-05-26T23:00:08.620Z,11.35
2019-05-26T23:02:37.872Z,8.43
2019-05-26T23:05:07.969Z,9.43
2019-05-26T23:07:37.230Z,9.58
2019-05-26T23:10:07.722Z,8.95
2019-05-26T23:12:36.982Z,10.48
2019-05-26T23:15:08.166Z,10.38
2019-05-26T23:20:06.542Z,10.45
2019-05-26T23:22:35.668Z,13.75
2019-05-26T23:25:06.752Z,14.78
2019-05-26T23:27:35.981Z,11.05
2019-05-26T23:30:06.849Z,9.68
2019-05-26T23:32:36.020Z,12.53
2019-05-26T23:35:08.378Z,11.08
2019-05-26T23:37:37.603Z,10.90
2019-05-26T23:40:08.457Z,10.88
2019-05-26T23:42:37.675Z,9.98
2019-05-26T23:45:07.709Z,10.68
2019-05-26T23:47:36.897Z,10.32
2019-05-26T23:50:07.178Z,13.30
2019-05-26T23:52:36.398Z,11.97
2019-05-26T23:55:07.531Z,12.65
